Time;durP1;ratioP1;P1;durP2;ratioP2;P2;SDS_P1;SDS_P2;PMS_P1;PMS_P2;Temp;Humidity;BMP_temperature;BMP_pressure;BME280_temperature;BME280_humidity;BME280_pressure;Samples;Min_cycle;Max_cycle;Signal;HPM_P1;HPM_P2
2023/08/25 00:00:38;;;;;;;11.55;9.25;;;;;;;19.01;100.00;100805.91;6178126;23;20012;-88
2023/08/25 00:03:06;;;;;;;16.13;10.15;;;;;;;18.93;100.00;100809.69;6204921;23;20008;-87
2023/08/25 00:05:39;;;;;;;13.85;10.60;;;;;;;18.96;100.00;100817.28;6205052;23;20028;-87
2023/08/25 00:08:05;;;;;;;15.10;10.25;;;;;;;18.84;100.00;100789.50;6205644;23;20004;-87
2023/08/25 00:10:32;;;;;;;12.68;10.20;;;;;;;18.64;100.00;100789.63;6179196;23;20019;-87
2023/08/25 00:12:57;;;;;;;15.38;10.68;;;;;;;18.71;100.00;100794.97;6179045;23;20075;-87
2023/08/25 00:15:23;;;;;;;14.25;10.15;;;;;;;18.64;100.00;100790.47;6179284;23;20009;-88
2023/08/25 00:17:50;;;;;;;14.73;10.48;;;;;;;18.68;100.00;100799.72;6205608;23;20013;-88
2023/08/25 00:20:15;;;;;;;15.52;10.43;;;;;;;18.80;100.00;100810.59;6205435;23;20013;-88
2023/08/25 00:22:41;;;;;;;15.02;10.02;;;;;;;18.68;100.00;100802.41;6205438;23;20008;-88
2023/08/25 00:25:07;;;;;;;13.93;10.15;;;;;;;18.70;100.00;100796.81;6205543;23;20031;-89
2023/08/25 00:27:33;;;;;;;17.77;11.25;;;;;;;18.68;100.00;100812.34;6205153;23;20007;-88
2023/08/25 00:29:58;;;;;;;15.20;10.15;;;;;;;18.64;100.00;100790.47;6178882;23;20163;-88
2023/08/25 00:32:23;;;;;;;16.02;10.45;;;;;;;18.49;100.00;100792.59;6205537;23;20008;-88
2023/08/25 00:34:49;;;;;;;14.32;10.32;;;;;;;18.56;100.00;100806.84;6205171;23;20008;-88
2023/08/25 00:37:14;;;;;;;15.40;10.43;;;;;;;18.58;100.00;100818.19;6178181;23;20190;-88
2023/08/25 00:39:40;;;;;;;15.35;10.48;;;;;;;18.60;100.00;100815.28;6178250;23;20087;-88
2023/08/25 00:42:05;;;;;;;13.63;10.32;;;;;;;18.66;100.00;100814.41;6178866;23;20016;-88
2023/08/25 00:44:30;;;;;;;14.20;11.10;;;;;;;18.49;100.00;100804.19;6205002;23;20080;-89
2023/08/25 00:46:56;;;;;;;13.30;10.13;;;;;;;18.64;100.00;100809.25;6205730;23;20039;-88
2023/08/25 00:49:23;;;;;;;15.63;10.82;;;;;;;18.51;100.00;100809.34;6205291;23;20008;-88
2023/08/25 00:51:51;;;;;;;13.32;9.77;;;;;;;18.60;100.00;100804.53;6204906;23;20020;-88
2023/08/25 00:54:17;;;;;;;14.32;10.35;;;;;;;18.58;100.00;100795.84;6205848;23;20012;-88
2023/08/25 00:56:43;;;;;;;14.05;9.80;;;;;;;18.59;100.00;100784.91;6178989;23;20051;-88
2023/08/25 00:59:09;;;;;;;14.32;10.57;;;;;;;18.61;100.00;100790.91;6205474;23;20008;-88
2023/08/25 01:01:35;;;;;;;14.70;11.00;;;;;;;18.61;100.00;100796.28;6178608;23;20071;-88
2023/08/25 01:04:00;;;;;;;16.42;11.02;;;;;;;18.52;100.00;100792.19;6178776;23;20014;-89
2023/08/25 01:06:26;;;;;;;15.48;10.70;;;;;;;18.57;100.00;100792.38;6178773;23;20104;-88
2023/08/25 01:08:51;;;;;;;14.55;11.02;;;;;;;18.61;100.00;100801.66;6179114;23;20421;-88
2023/08/25 01:11:19;;;;;;;14.27;11.63;;;;;;;18.65;100.00;100818.94;6205520;23;20005;-88
2023/08/25 01:14:03;;;;;;;15.95;11.10;;;;;;;18.69;100.00;100816.66;6205676;23;20083;-89
2023/08/25 01:17:17;;;;;;;15.82;11.52;;;;;;;18.69;100.00;100809.44;6205371;23;20100;-88
2023/08/25 01:19:56;;;;;;;;;;;;;;;18.84;100.00;100819.03;6165477;23;20028;-87
2023/08/25 01:22:28;;;;;;;13.05;10.82;;;;;;;18.47;100.00;100781.28;6178472;23;19999;-88
2023/08/25 01:25:01;;;;;;;16.05;11.38;;;;;;;18.62;100.00;100794.41;6204758;23;20456;-88
2023/08/25 01:27:27;;;;;;;15.00;11.88;;;;;;;18.55;100.00;100791.75;6178409;23;20338;-87
2023/08/25 01:29:53;;;;;;;15.32;11.68;;;;;;;18.40;100.00;100775.94;6205110;23;20004;-88
2023/08/25 01:32:19;;;;;;;14.65;11.88;;;;;;;18.40;100.00;100784.81;6204597;23;20009;-89
2023/08/25 01:34:48;;;;;;;15.98;11.95;;;;;;;18.34;100.00;100784.84;6205009;23;20279;-87
2023/08/25 01:37:23;;;;;;;16.67;12.10;;;;;;;18.41;100.00;100797.19;6204946;23;20436;-87
2023/08/25 01:39:51;;;;;;;18.10;12.88;;;;;;;18.38;100.00;100788.75;6204948;23;20310;-87
2023/08/25 01:42:21;;;;;;;14.63;11.75;;;;;;;18.32;100.00;100785.06;6204572;23;20015;-87
2023/08/25 01:44:47;;;;;;;18.25;12.55;;;;;;;18.36;100.00;100788.16;6177856;23;20523;-87
2023/08/25 01:47:19;;;;;;;16.42;11.75;;;;;;;18.29;100.00;100772.06;6204432;23;20009;-87
2023/08/25 01:49:45;;;;;;;17.85;11.73;;;;;;;18.34;100.00;100774.94;6178076;23;20009;-87
2023/08/25 01:52:12;;;;;;;13.93;11.90;;;;;;;18.45;100.00;100786.84;6176867;23;20008;-87
2023/08/25 01:54:38;;;;;;;13.85;12.05;;;;;;;18.41;100.00;100770.34;6203798;23;20333;-87
2023/08/25 01:57:03;;;;;;;19.58;13.05;;;;;;;18.40;100.00;100768.72;6202312;23;20004;-87
2023/08/25 01:59:29;;;;;;;16.58;12.80;;;;;;;18.42;100.00;100774.69;6203936;23;20016;-88
2023/08/25 02:01:54;;;;;;;16.13;12.50;;;;;;;18.62;100.00;100789.03;6204875;23;20013;-87
2023/08/25 02:04:20;;;;;;;17.90;13.43;;;;;;;18.62;100.00;100787.19;6178447;23;20004;-87
2023/08/25 02:06:45;;;;;;;17.55;12.75;;;;;;;18.62;100.00;100784.50;6205190;23;20008;-87
2023/08/25 02:09:11;;;;;;;17.50;14.05;;;;;;;18.41;100.00;100756.94;6178220;23;20783;-88
2023/08/25 02:11:37;;;;;;;17.92;14.07;;;;;;;18.46;100.00;100771.56;6204387;23;20009;-87
2023/08/25 02:14:02;;;;;;;16.00;13.32;;;;;;;18.55;100.00;100775.63;6204819;23;20086;-87
2023/08/25 02:16:27;;;;;;;16.98;14.02;;;;;;;18.52;100.00;100757.28;6204440;23;20008;-87
2023/08/25 02:18:53;;;;;;;18.63;14.48;;;;;;;18.53;100.00;100756.25;6177960;23;20017;-87
2023/08/25 02:21:18;;;;;;;20.90;14.18;;;;;;;18.55;100.00;100754.16;6204495;23;20210;-87
2023/08/25 02:23:44;;;;;;;17.92;14.90;;;;;;;18.62;100.00;100768.38;6178068;23;20409;-87
2023/08/25 02:26:09;;;;;;;17.42;14.60;;;;;;;18.50;100.00;100746.75;6205271;23;20019;-87
2023/08/25 02:28:34;;;;;;;18.95;15.75;;;;;;;18.59;100.00;100758.06;6204928;23;20087;-88
2023/08/25 02:31:00;;;;;;;19.75;15.40;;;;;;;18.58;100.00;100751.03;6205073;23;20036;-87
2023/08/25 02:33:26;;;;;;;19.75;15.25;;;;;;;18.62;100.00;100759.47;6177939;23;20025;-87
2023/08/25 02:35:52;;;;;;;18.52;15.02;;;;;;;18.52;100.00;100727.75;6205042;23;20008;-87
2023/08/25 02:38:17;;;;;;;17.55;15.35;;;;;;;18.63;100.00;100745.00;6204885;23;20004;-90
2023/08/25 02:40:43;;;;;;;19.27;15.88;;;;;;;18.47;100.00;100714.16;6178076;23;20583;-88
2023/08/25 02:43:08;;;;;;;18.90;15.80;;;;;;;18.59;100.00;100739.25;6204866;23;20227;-88
2023/08/25 02:45:35;;;;;;;17.80;15.35;;;;;;;18.57;100.00;100727.09;6177779;23;20011;-88
2023/08/25 02:48:01;;;;;;;19.45;16.30;;;;;;;18.50;100.00;100719.91;6177682;23;20382;-88
2023/08/25 02:50:27;;;;;;;23.05;18.20;;;;;;;18.47;100.00;100712.31;6204598;23;20012;-88
2023/08/25 02:52:53;;;;;;;21.75;17.52;;;;;;;18.67;100.00;100735.50;6206365;23;20079;-87
2023/08/25 02:55:21;;;;;;;20.50;17.15;;;;;;;18.70;100.00;100724.28;6179599;23;20063;-88
2023/08/25 02:57:48;;;;;;;23.50;18.50;;;;;;;18.66;100.00;100731.97;6206750;23;20016;-87
2023/08/25 03:00:15;;;;;;;25.17;19.30;;;;;;;18.47;100.00;100714.16;6180046;23;20441;-88
2023/08/25 03:02:40;;;;;;;23.63;18.52;;;;;;;18.68;100.00;100726.38;6207475;23;20059;-88
2023/08/25 03:05:07;;;;;;;25.17;19.95;;;;;;;18.55;100.00;100705.81;6178806;23;20430;-88
2023/08/25 03:07:35;;;;;;;24.65;20.58;;;;;;;18.58;100.00;100708.06;6179730;23;20355;-88
2023/08/25 03:10:01;;;;;;;25.67;19.85;;;;;;;18.50;100.00;100681.50;6206497;23;20487;-87
2023/08/25 03:12:26;;;;;;;22.25;19.77;;;;;;;18.69;100.00;100718.13;6180131;23;20009;-88
2023/08/25 03:14:53;;;;;;;21.95;18.77;;;;;;;18.72;100.00;100711.50;6206495;23;20012;-87
2023/08/25 03:17:19;;;;;;;24.55;20.65;;;;;;;18.63;100.00;100699.34;6206687;23;20005;-90
2023/08/25 03:19:44;;;;;;;24.13;20.42;;;;;;;18.47;100.00;100671.19;6207559;23;20024;-87
2023/08/25 03:22:10;;;;;;;24.00;19.95;;;;;;;18.51;100.00;100681.28;6207421;23;20051;-88
2023/08/25 03:24:35;;;;;;;25.77;20.75;;;;;;;18.59;100.00;100687.44;6207508;23;20047;-89
2023/08/25 03:27:00;;;;;;;27.65;21.05;;;;;;;18.48;100.00;100683.56;6207897;23;20441;-88
2023/08/25 03:29:26;;;;;;;26.50;21.70;;;;;;;18.50;100.00;100665.41;6181093;23;20032;-88
2023/08/25 03:31:52;;;;;;;25.27;21.30;;;;;;;18.52;100.00;100674.06;6207408;23;20066;-86
2023/08/25 03:34:18;;;;;;;24.40;21.25;;;;;;;18.62;100.00;100682.44;6180217;23;20392;-87
2023/08/25 03:36:45;;;;;;;25.40;20.70;;;;;;;18.58;100.00;100673.16;6207582;23;20036;-91
2023/08/25 03:39:10;;;;;;;27.10;21.10;;;;;;;18.55;100.00;100671.75;6180994;23;20420;-88
2023/08/25 03:41:36;;;;;;;25.48;20.70;;;;;;;18.55;100.00;100666.38;6181222;23;20075;-87
2023/08/25 03:44:01;;;;;;;25.80;20.40;;;;;;;18.59;100.00;100655.22;6180835;23;20008;-87
2023/08/25 03:46:26;;;;;;;24.67;20.70;;;;;;;18.55;100.00;100641.38;6207291;23;20317;-89
2023/08/25 03:48:52;;;;;;;25.35;21.65;;;;;;;18.64;100.00;100660.72;6180264;23;20005;-89
2023/08/25 03:51:17;;;;;;;25.05;20.80;;;;;;;18.72;100.00;100673.06;6180583;23;20080;-89
2023/08/25 03:53:43;;;;;;;25.80;20.70;;;;;;;18.76;100.00;100674.25;6181625;23;20004;-88
2023/08/25 03:56:08;;;;;;;25.48;22.08;;;;;;;18.68;100.00;100672.69;6222866;23;20008;-89
2023/08/25 03:58:33;;;;;;;25.30;20.80;;;;;;;18.59;100.00;100655.22;6191885;23;20012;-86
2023/08/25 04:00:59;;;;;;;26.20;21.15;;;;;;;18.61;100.00;100666.53;6187297;23;20019;-88
2023/08/25 04:03:24;;;;;;;26.02;22.02;;;;;;;18.61;100.00;100666.53;6213932;23;20011;-89
2023/08/25 04:05:50;;;;;;;24.63;21.05;;;;;;;18.54;100.00;100653.16;6230107;23;20043;-89
2023/08/25 04:08:15;;;;;;;24.27;20.80;;;;;;;18.62;100.00;100660.13;6232231;23;20024;-90
2023/08/25 04:10:43;;;;;;;26.70;22.33;;;;;;;18.66;100.00;100664.81;6230806;23;20099;-87
2023/08/25 04:13:09;;;;;;;27.35;21.58;;;;;;;18.58;100.00;100661.59;6228524;23;20236;-86
2023/08/25 04:15:38;;;;;;;26.15;21.92;;;;;;;18.58;100.00;100657.06;6200941;23;20004;-86
2023/08/25 04:18:04;;;;;;;26.38;22.05;;;;;;;18.69;100.00;100672.47;6215928;23;20020;-86
2023/08/25 04:20:37;;;;;;;28.67;22.05;;;;;;;18.55;100.00;100652.94;6206512;23;20020;-92
2023/08/25 04:23:03;;;;;;;26.23;21.55;;;;;;;18.67;100.00;100661.13;6178829;23;20013;-85
2023/08/25 04:25:29;;;;;;;26.83;22.45;;;;;;;18.53;100.00;100641.63;6205684;23;20475;-85
2023/08/25 04:27:56;;;;;;;25.50;21.42;;;;;;;18.56;100.00;100651.09;6204775;23;20010;-85
2023/08/25 04:30:22;;;;;;;26.75;21.80;;;;;;;18.66;100.00;100658.66;6204478;23;20074;-85
2023/08/25 04:32:49;;;;;;;26.48;22.35;;;;;;;18.59;100.00;100658.69;6205261;23;20004;-85
2023/08/25 04:35:15;;;;;;;25.88;21.38;;;;;;;18.63;100.00;100665.28;6205475;23;20008;-86
2023/08/25 04:37:43;;;;;;;24.80;21.50;;;;;;;18.59;100.00;100660.56;6177984;23;20074;-86
2023/08/25 04:40:09;;;;;;;25.60;21.63;;;;;;;18.52;100.00;100653.41;6205316;23;20013;-86
2023/08/25 04:42:35;;;;;;;27.55;21.45;;;;;;;18.59;100.00;100665.94;6204962;23;20066;-85
2023/08/25 04:45:00;;;;;;;26.15;20.63;;;;;;;18.55;100.00;100657.47;6177697;23;20013;-85
2023/08/25 04:47:25;;;;;;;27.38;22.25;;;;;;;18.58;100.00;100672.34;6205703;23;20036;-84
2023/08/25 04:49:53;;;;;;;26.05;22.30;;;;;;;18.55;100.00;100662.84;6204890;23;20015;-85
2023/08/25 04:52:18;;;;;;;25.50;21.92;;;;;;;18.51;100.00;100645.56;6204841;23;20512;-85
2023/08/25 04:54:43;;;;;;;26.60;22.83;;;;;;;18.59;100.00;100655.22;6178747;23;20016;-84
2023/08/25 04:57:09;;;;;;;26.25;22.13;;;;;;;18.50;100.00;100638.56;6204586;23;20030;-83
2023/08/25 04:59:34;;;;;;;27.92;23.00;;;;;;;18.46;100.00;100631.97;6204674;23;20007;-85
2023/08/25 05:01:59;;;;;;;24.33;21.30;;;;;;;18.64;100.00;100652.66;6204256;23;20487;-85
2023/08/25 05:04:26;;;;;;;24.02;20.83;;;;;;;18.60;100.00;100643.41;6205280;23;20090;-86
2023/08/25 05:06:51;;;;;;;25.75;21.70;;;;;;;18.65;100.00;100647.06;6204776;23;20008;-85
2023/08/25 05:09:16;;;;;;;26.88;21.30;;;;;;;18.61;100.00;100634.31;6204704;23;20004;-85
2023/08/25 05:11:42;;;;;;;25.13;21.15;;;;;;;18.66;100.00;100642.53;6204489;23;20040;-84
2023/08/25 05:14:07;;;;;;;27.38;21.15;;;;;;;18.59;100.00;100639.09;6205162;23;20011;-85
2023/08/25 05:16:32;;;;;;;26.33;21.02;;;;;;;18.66;100.00;100661.34;6204330;23;20046;-85
2023/08/25 05:18:58;;;;;;;26.45;21.23;;;;;;;18.59;100.00;100637.22;6203837;23;20001;-84
2023/08/25 05:21:23;;;;;;;26.95;20.45;;;;;;;18.54;100.00;100631.69;6204873;23;20394;-85
2023/08/25 05:23:53;;;;;;;24.88;20.00;;;;;;;18.65;100.00;100652.44;6204502;23;20086;-85
2023/08/25 05:26:18;;;;;;;25.08;21.65;;;;;;;18.55;100.00;100652.13;6204786;23;20008;-84
2023/08/25 05:28:43;;;;;;;24.42;20.20;;;;;;;18.60;100.00;100644.22;6204309;23;20019;-85
2023/08/25 05:31:09;;;;;;;24.88;19.73;;;;;;;18.57;100.00;100644.69;6177669;23;20013;-85
2023/08/25 05:33:35;;;;;;;23.27;20.17;;;;;;;18.59;100.00;100658.69;6204162;23;20474;-85
2023/08/25 05:36:02;;;;;;;26.88;20.27;;;;;;;18.66;100.00;100659.47;6205447;23;20008;-85
2023/08/25 05:38:27;;;;;;;25.90;20.88;;;;;;;18.59;100.00;100625.69;6204131;23;20103;-85
2023/08/25 05:40:52;;;;;;;23.98;19.92;;;;;;;18.66;100.00;100634.47;6204157;23;20036;-85
2023/08/25 05:43:18;;;;;;;26.20;19.50;;;;;;;18.73;100.00;100637.09;6203803;23;20000;-85
2023/08/25 05:45:43;;;;;;;23.90;18.40;;;;;;;18.84;100.00;100639.06;6203754;23;20012;-85
2023/08/25 05:48:08;;;;;;;23.63;18.98;;;;;;;18.86;100.00;100642.34;6203487;23;20023;-86
2023/08/25 05:50:35;;;;;;;21.80;17.17;;;;;;;18.85;100.00;100635.31;6177862;23;20008;-85
2023/08/25 05:53:01;;;;;;;21.15;16.20;;;;;;;18.86;100.00;100628.94;6205793;23;20005;-86
2023/08/25 05:55:27;;;;;;;18.88;16.17;;;;;;;18.83;100.00;100621.28;6205098;23;20035;-87
2023/08/25 05:57:52;;;;;;;23.88;16.73;;;;;;;18.84;100.00;100627.50;6178463;23;20095;-87
2023/08/25 06:00:18;;;;;;;20.27;14.55;;;;;;;18.72;100.00;100609.44;6205276;23;20035;-86
2023/08/25 06:02:43;;;;;;;19.98;15.00;;;;;;;18.71;100.00;100606.97;6205066;23;20012;-86
2023/08/25 06:05:09;;;;;;;21.75;14.95;;;;;;;18.82;100.00;100617.81;6204516;23;20013;-86
2023/08/25 06:07:34;;;;;;;19.55;14.75;;;;;;;18.82;100.00;100615.13;6204439;23;20013;-86
2023/08/25 06:09:59;;;;;;;19.85;14.02;;;;;;;18.80;100.00;100606.44;6203977;23;20005;-86
2023/08/25 06:12:25;;;;;;;21.98;13.77;;;;;;;18.85;100.00;100619.19;6205171;23;20015;-86
2023/08/25 06:14:52;;;;;;;20.42;15.00;;;;;;;18.80;100.00;100611.00;6205371;23;20019;-86
2023/08/25 06:17:17;;;;;;;19.13;15.20;;;;;;;18.75;100.00;100602.78;6204829;23;20393;-86
2023/08/25 06:19:43;;;;;;;19.45;15.15;;;;;;;18.76;100.00;100609.81;6177315;23;20031;-86
2023/08/25 06:22:10;;;;;;;20.52;15.32;;;;;;;18.76;100.00;100620.53;6204180;23;20366;-85
2023/08/25 06:24:35;;;;;;;19.17;14.90;;;;;;;18.66;100.00;100616.50;6204909;23;20013;-86
2023/08/25 06:27:02;;;;;;;21.50;15.02;;;;;;;18.77;100.00;100628.38;6179763;23;20059;-86
2023/08/25 06:29:27;;;;;;;20.08;14.80;;;;;;;18.71;100.00;100642.72;6179985;23;20055;-86
2023/08/25 06:31:53;;;;;;;20.08;13.93;;;;;;;18.77;100.00;100644.50;6179512;23;20326;-86
2023/08/25 06:34:18;;;;;;;17.33;13.45;;;;;;;18.76;100.00;100642.84;6206766;23;20015;-85
2023/08/25 06:36:43;;;;;;;17.55;11.70;;;;;;;18.73;100.00;100637.09;6206765;23;20008;-86
2023/08/25 06:39:09;;;;;;;19.27;11.18;;;;;;;18.62;100.00;100630.59;6207918;23;20013;-86
2023/08/25 06:41:34;;;;;;;19.52;11.48;;;;;;;18.62;100.00;100609.94;6206822;23;20499;-86
2023/08/25 06:44:00;;;;;;;17.88;10.20;;;;;;;18.55;100.00;100609.16;6206348;23;20043;-86
2023/08/25 06:46:25;;;;;;;12.80;9.40;;;;;;;18.48;100.00;100613.75;6206812;23;20012;-86
2023/08/25 06:48:50;;;;;;;15.18;9.75;;;;;;;18.66;100.00;100642.53;6179477;23;20140;-85
2023/08/25 06:51:16;;;;;;;19.25;10.55;;;;;;;18.58;100.00;100622.16;6206253;23;20080;-85
2023/08/25 06:53:41;;;;;;;15.63;10.15;;;;;;;18.62;100.00;100604.56;6206205;23;20596;-84
2023/08/25 06:56:07;;;;;;;15.65;10.40;;;;;;;18.62;100.00;100615.31;6205863;23;20391;-85
2023/08/25 06:58:32;;;;;;;16.55;10.75;;;;;;;18.44;100.00;100569.63;6205642;23;20004;-86
2023/08/25 07:00:58;;;;;;;17.42;11.55;;;;;;;18.53;100.00;100552.19;6206588;23;20442;-86
2023/08/25 07:03:23;;;;;;;18.42;12.73;;;;;;;18.55;100.00;100547.41;6206378;23;20532;-86
2023/08/25 07:05:49;;;;;;;21.10;13.15;;;;;;;18.51;100.00;100559.66;6206008;23;20100;-85
2023/08/25 07:08:14;;;;;;;19.02;13.75;;;;;;;18.46;100.00;100568.38;6179432;23;20363;-85
2023/08/25 07:10:40;;;;;;;20.13;14.52;;;;;;;18.54;100.00;100586.03;6205853;23;20390;-86
2023/08/25 07:13:06;;;;;;;19.65;14.82;;;;;;;18.48;100.00;100573.50;6206035;23;20054;-85
2023/08/25 07:15:31;;;;;;;20.75;14.43;;;;;;;18.44;100.00;100551.66;6206165;23;20381;-89
2023/08/25 07:17:57;;;;;;;19.85;15.40;;;;;;;18.44;100.00;100558.88;6179526;23;20013;-87
2023/08/25 07:20:22;;;;;;;19.73;15.27;;;;;;;18.32;100.00;100556.94;6206196;23;20013;-87
2023/08/25 07:22:48;;;;;;;21.60;14.68;;;;;;;18.46;100.00;100629.28;6205967;23;20054;-86
2023/08/25 07:25:14;;;;;;;22.77;14.85;;;;;;;18.33;100.00;100687.41;6206304;23;20009;-86
2023/08/25 07:27:39;;;;;;;19.08;13.77;;;;;;;18.29;100.00;100715.72;6238223;22;20019;-81
2023/08/25 07:30:06;;;;;;;36.45;15.52;;;;;;;18.35;100.00;100688.00;6279711;22;20004;-85
2023/08/25 07:32:31;;;;;;;23.77;13.90;;;;;;;18.26;100.00;100606.13;6250611;22;20012;-83
2023/08/25 07:34:57;;;;;;;17.55;11.45;;;;;;;18.27;100.00;100602.38;6277098;22;20000;-88
2023/08/25 07:37:22;;;;;;;19.63;11.50;;;;;;;18.24;100.00;100635.00;6276440;22;20011;-85
2023/08/25 07:39:54;;;;;;;18.65;11.77;;;;;;;18.31;100.00;100662.66;6249282;22;20091;-85
2023/08/25 07:42:19;;;;;;;15.63;11.30;;;;;;;18.31;100.00;100662.66;6275503;22;20332;-85
2023/08/25 07:44:47;;;;;;;16.90;11.05;;;;;;;18.26;100.00;100646.38;6276092;22;20069;-87
2023/08/25 07:47:13;;;;;;;19.92;11.30;;;;;;;18.33;100.00;100649.81;6276865;22;20004;-87
2023/08/25 07:49:38;;;;;;;16.48;11.18;;;;;;;18.25;100.00;100647.38;6277943;22;20012;-88
2023/08/25 07:52:04;;;;;;;15.90;10.85;;;;;;;18.27;100.00;100648.00;6277724;22;20003;-88
2023/08/25 07:54:29;;;;;;;17.35;11.10;;;;;;;18.28;100.00;100661.22;6276601;22;20007;-87
2023/08/25 07:56:57;;;;;;;17.60;11.00;;;;;;;18.31;100.00;100668.03;6277372;22;20004;-88
2023/08/25 07:59:22;;;;;;;16.60;10.70;;;;;;;18.20;100.00;100644.56;6277496;22;20004;-88
2023/08/25 08:01:51;;;;;;;16.50;10.48;;;;;;;18.31;100.00;100662.66;6277741;22;20003;-88
2023/08/25 08:04:16;;;;;;;16.75;10.85;;;;;;;18.23;100.00;100649.47;6276823;22;20010;-87
2023/08/25 08:06:42;;;;;;;18.52;10.60;;;;;;;18.31;100.00;100651.91;6277361;22;20008;-87
2023/08/25 08:09:07;;;;;;;15.82;10.40;;;;;;;18.24;100.00;100659.16;6276854;22;20007;-87
2023/08/25 08:11:33;;;;;;;15.93;10.13;;;;;;;18.33;100.00;100671.31;6276878;22;20004;-88
2023/08/25 08:13:59;;;;;;;18.65;10.77;;;;;;;18.28;100.00;100658.53;6250557;22;20344;-87
2023/08/25 08:16:24;;;;;;;15.95;10.18;;;;;;;18.35;100.00;100661.16;6277630;22;20011;-87
2023/08/25 08:18:50;;;;;;;15.70;10.50;;;;;;;18.30;100.00;100666.34;6276963;22;20000;-88
2023/08/25 08:21:17;;;;;;;17.85;11.00;;;;;;;18.38;100.00;100646.47;6276895;22;20078;-87
2023/08/25 08:23:43;;;;;;;14.50;10.70;;;;;;;18.25;100.00;100632.13;6278047;22;20038;-88
2023/08/25 08:26:13;;;;;;;14.05;10.40;;;;;;;18.31;100.00;100624.25;6276926;22;20332;-86
2023/08/25 08:28:48;;;;;;;15.73;10.27;;;;;;;18.35;100.00;100631.63;6277147;22;20030;-87
2023/08/25 08:31:18;;;;;;;15.98;11.25;;;;;;;18.41;100.00;100644.19;6276335;22;20031;-88
2023/08/25 08:33:47;;;;;;;14.50;11.75;;;;;;;18.37;100.00;100624.19;6276195;22;20325;-88
2023/08/25 08:36:15;;;;;;;14.88;11.98;;;;;;;18.34;100.00;100630.00;6275620;22;20004;-87
2023/08/25 08:38:40;;;;;;;17.58;12.23;;;;;;;18.41;100.00;100660.28;6279727;22;20028;-92
2023/08/25 08:41:06;;;;;;;17.27;12.55;;;;;;;18.27;100.00;100645.31;6281017;22;20371;-93
2023/08/25 08:43:38;;;;;;;19.95;13.32;;;;;;;18.27;100.00;100658.75;6252828;22;20004;-94
2023/08/25 08:46:04;;;;;;;16.13;12.73;;;;;;;18.21;100.00;100640.84;6253626;22;20428;-91
2023/08/25 08:48:37;;;;;;;16.58;12.57;;;;;;;18.31;100.00;100668.03;6251487;22;20004;-89
2023/08/25 08:51:04;;;;;;;17.52;13.07;;;;;;;18.21;100.00;100647.00;6278504;22;20000;-91
2023/08/25 08:53:31;;;;;;;18.90;14.02;;;;;;;18.21;100.00;100667.66;6251115;22;20008;-90
2023/08/25 08:56:01;;;;;;;18.50;14.70;;;;;;;18.08;100.00;100658.66;6277928;22;20380;-89
2023/08/25 08:58:27;;;;;;;18.27;14.45;;;;;;;18.26;100.00;100682.06;6251324;22;20381;-89
2023/08/25 09:00:56;;;;;;;17.05;14.55;;;;;;;18.13;100.00;100653.47;6251227;22;20000;-91
2023/08/25 09:03:26;;;;;;;19.85;15.65;;;;;;;18.10;100.00;100648.53;6250165;22;20007;-91
2023/08/25 09:05:57;;;;;;;20.48;16.02;;;;;;;17.98;100.00;100629.59;6250779;22;20031;-88
2023/08/25 09:08:24;;;;;;;19.45;15.75;;;;;;;18.10;100.00;100623.53;6251038;22;20003;-89
2023/08/25 09:10:58;;;;;;;17.85;15.32;;;;;;;18.15;100.00;100648.72;6251269;22;20130;-93
2023/08/25 09:13:23;;;;;;;18.63;14.82;;;;;;;18.22;100.00;100682.72;6253474;22;20004;-96
2023/08/25 09:15:53;;;;;;;18.63;14.95;;;;;;;18.07;100.00;100662.41;6251412;22;20010;-92
2023/08/25 09:18:18;;;;;;;17.73;14.90;;;;;;;18.27;100.00;100656.06;6277219;22;20000;-91
2023/08/25 09:20:44;;;;;;;18.27;14.95;;;;;;;18.23;100.00;100625.31;6249975;22;20012;-94
2023/08/25 09:23:12;;;;;;;18.70;15.30;;;;;;;18.21;100.00;100614.00;6255884;22;20000;-95
2023/08/25 09:25:53;;;;;;;18.38;14.88;;;;;;;18.10;100.00;100597.56;6255764;22;20003;-96
